Time;durP1;ratioP1;P1;durP2;ratioP2;P2;SDS_P1;SDS_P2;PMS_P1;PMS_P2;Temp;Humidity;BMP_temperature;BMP_pressure;BME280_temperature;BME280_humidity;BME280_pressure;Samples;Min_cycle;Max_cycle;Signal;HPM_P1;HPM_P2
2023/06/22 00:00:11;;;;;;;;;;;;;;;;;;5055940;28;20012;-74
2023/06/22 00:02:38;;;;;;;;;;;;;;;;;;5054952;28;19947;-74
2023/06/22 00:05:05;;;;;;;;;;;;;;;;;;5055050;28;19924;-73
2023/06/22 00:07:32;;;;;;;;;;;;;;;;;;5066159;28;19925;-71
2023/06/22 00:09:59;;;;;;;;;;;;;;;;;;5051249;28;19960;-72
2023/06/22 00:12:26;;;;;;;;;;;;;;;;;;5052039;28;20024;-72
2023/06/22 00:14:53;;;;;;;;;;;;;;;;;;5051173;28;19925;-72
2023/06/22 00:17:20;;;;;;;;;;;;;;;;;;5054764;28;19935;-72
2023/06/22 00:19:47;;;;;;;;;;;;;;;;;;5064344;28;20015;-73
2023/06/22 00:22:14;;;;;;;;;;;;;;;;;;5052817;28;19925;-73
2023/06/22 00:24:41;;;;;;;;;;;;;;;;;;5051470;28;20015;-73
2023/06/22 00:27:08;;;;;;;;;;;;;;;;;;5050440;28;19967;-72
2023/06/22 00:29:35;;;;;;;;;;;;;;;;;;5049397;28;19929;-72
2023/06/22 00:32:03;;;;;;;;;;;;;;;;;;5051138;28;20016;-73
2023/06/22 00:34:30;;;;;;;;;;;;;;;;;;5050658;28;20380;-72
2023/06/22 00:36:57;;;;;;;;;;;;;;;;;;5051684;28;19925;-73
2023/06/22 00:39:23;;;;;;;;;;;;;;;;;;5056526;28;19932;-72
2023/06/22 00:41:50;;;;;;;;;;;;;;;;;;5060125;28;20000;-72
2023/06/22 00:44:24;;;;;;;;;;;;;;;;;;5053253;28;19928;-73
2023/06/22 00:46:51;;;;;;;;;;;;;;;;;;5054844;28;19924;-72
2023/06/22 00:49:18;;;;;;;;;;;;;;;;;;5054066;28;19925;-72
2023/06/22 00:51:47;;;;;;;;;;;;;;;;;;5054057;28;19925;-72
2023/06/22 00:54:14;;;;;;;;;;;;;;;;;;5054336;28;19975;-72
2023/06/22 00:56:42;;;;;;;;;;;;;;;;;;5053864;28;19971;-72
2023/06/22 00:59:12;;;;;;;;;;;;;;;;;;5052130;28;19978;-72
2023/06/22 01:01:41;;;;;;;;;;;;;;;;;;5053556;28;19928;-73
2023/06/22 01:04:08;;;;;;;;;;;;;;;;;;5053436;28;20342;-73
2023/06/22 01:06:37;;;;;;;;;;;;;;;;;;5054669;28;19928;-73
2023/06/22 01:09:05;;;;;;;;;;;;;;;;;;5053792;28;20031;-73
2023/06/22 01:11:32;;;;;;;;;;;;;;;;;;5052807;28;19971;-73
2023/06/22 01:13:59;;;;;;;;;;;;;;;;;;5054061;28;19925;-73
2023/06/22 01:16:26;;;;;;;;;;;;;;;;;;5053559;28;20060;-73
2023/06/22 01:18:53;;;;;;;;;;;;;;;;;;5054492;28;19924;-73
2023/06/22 01:21:20;;;;;;;;;;;;;;;;;;5051454;28;20036;-72
2023/06/22 01:23:46;;;;;;;;;;;;;;;;;;5053390;28;20370;-72
2023/06/22 01:26:14;;;;;;;;;;;;;;;;;;5045461;28;20039;-73
2023/06/22 01:28:42;;;;;;;;;;;;;;;;;;5053710;28;19924;-72
2023/06/22 01:31:09;;;;;;;;;;;;;;;;;;5053916;28;19924;-72
2023/06/22 01:33:36;;;;;;;;;;;;;;;;;;5054276;28;19924;-72
2023/06/22 01:36:03;;;;;;;;;;;;;;;;;;5046473;28;19932;-73
2023/06/22 01:38:30;;;;;;;;;;;;;;;;;;5050133;28;19931;-73
2023/06/22 01:40:56;;;;;;;;;;;;;;;;;;5052605;28;19925;-73
2023/06/22 01:43:23;;;;;;;;;;;;;;;;;;5051280;28;19931;-73
2023/06/22 01:45:50;;;;;;;;;;;;;;;;;;5052731;28;19990;-73
2023/06/22 01:48:17;;;;;;;;;;;;;;;;;;5054134;28;20019;-73
2023/06/22 01:50:44;;;;;;;;;;;;;;;;;;5052531;28;20285;-73
2023/06/22 01:53:11;;;;;;;;;;;;;;;;;;5052904;28;19925;-74
2023/06/22 01:55:38;;;;;;;;;;;;;;;;;;5052895;28;20015;-73
2023/06/22 01:58:05;;;;;;;;;;;;;;;;;;5056564;28;19972;-74
2023/06/22 02:00:32;;;;;;;;;;;;;;;;;;5052619;28;20011;-73
2023/06/22 02:02:59;;;;;;;;;;;;;;;;;;5054140;28;20007;-73
2023/06/22 02:05:26;;;;;;;;;;;;;;;;;;5053922;28;19925;-73
2023/06/22 02:07:53;;;;;;;;;;;;;;;;;;5053552;28;19960;-73
2023/06/22 02:10:20;;;;;;;;;;;;;;;;;;5052820;28;20020;-73
2023/06/22 02:12:47;;;;;;;;;;;;;;;;;;5051670;28;19968;-73
2023/06/22 02:15:14;;;;;;;;;;;;;;;;;;5049943;28;19975;-73
2023/06/22 02:17:44;;;;;;;;;;;;;;;;;;5052052;28;19925;-72
2023/06/22 02:20:11;;;;;;;;;;;;;;;;;;5051956;28;20089;-72
2023/06/22 02:22:38;;;;;;;;;;;;;;;;;;5052833;28;19932;-72
2023/06/22 02:25:05;;;;;;;;;;;;;;;;;;5051279;28;20023;-72
2023/06/22 02:27:32;;;;;;;;;;;;;;;;;;5052977;28;20019;-72
2023/06/22 02:29:59;;;;;;;;;;;;;;;;;;5051917;28;19932;-72
2023/06/22 02:32:26;;;;;;;;;;;;;;;;;;5058108;28;20031;-72
2023/06/22 02:34:53;;;;;;;;;;;;;;;;;;5055740;28;19971;-72
2023/06/22 02:37:20;;;;;;;;;;;;;;;;;;5053095;28;19972;-73
2023/06/22 02:39:47;;;;;;;;;;;;;;;;;;5058464;28;20366;-72
2023/06/22 02:42:15;;;;;;;;;;;;;;;;;;5052461;28;19925;-72
2023/06/22 02:44:42;;;;;;;;;;;;;;;;;;5051615;28;19928;-72
2023/06/22 02:47:09;;;;;;;;;;;;;;;;;;5048747;28;20455;-73
2023/06/22 02:49:36;;;;;;;;;;;;;;;;;;5043842;28;19970;-73
2023/06/22 02:52:03;;;;;;;;;;;;;;;;;;5051619;28;19960;-73
2023/06/22 02:54:30;;;;;;;;;;;;;;;;;;5048655;28;20020;-73
2023/06/22 02:56:56;;;;;;;;;;;;;;;;;;5046832;28;19928;-73
2023/06/22 02:59:24;;;;;;;;;;;;;;;;;;5051833;28;19932;-74
2023/06/22 03:01:51;;;;;;;;;;;;;;;;;;5052671;28;20460;-73
2023/06/22 03:04:18;;;;;;;;;;;;;;;;;;5052714;28;20410;-73
2023/06/22 03:06:50;;;;;;;;;;;;;;;;;;5053469;28;19968;-73
2023/06/22 03:09:17;;;;;;;;;;;;;;;;;;5053199;28;20007;-73
2023/06/22 03:11:44;;;;;;;;;;;;;;;;;;5053065;28;20371;-73
2023/06/22 03:14:11;;;;;;;;;;;;;;;;;;5070123;28;19959;-73
2023/06/22 03:16:40;;;;;;;;;;;;;;;;;;5054207;28;19968;-73
2023/06/22 03:19:07;;;;;;;;;;;;;;;;;;5052739;28;19925;-73
2023/06/22 03:21:34;;;;;;;;;;;;;;;;;;5052809;28;19924;-73
2023/06/22 03:24:01;;;;;;;;;;;;;;;;;;5052374;28;19935;-73
2023/06/22 03:26:28;;;;;;;;;;;;;;;;;;5052980;28;19931;-73
2023/06/22 03:28:55;;;;;;;;;;;;;;;;;;5049684;28;19928;-73
2023/06/22 03:31:22;;;;;;;;;;;;;;;;;;5048984;28;19929;-73
2023/06/22 03:33:49;;;;;;;;;;;;;;;;;;5046956;28;19987;-74
2023/06/22 03:36:18;;;;;;;;;;;;;;;;;;5036218;28;19925;-73
2023/06/22 03:38:45;;;;;;;;;;;;;;;;;;5043449;28;19971;-74
2023/06/22 03:41:12;;;;;;;;;;;;;;;;;;5050001;28;20470;-73
2023/06/22 03:43:39;;;;;;;;;;;;;;;;;;5051028;28;19998;-74
2023/06/22 03:46:06;;;;;;;;;;;;;;;;;;5048747;28;20057;-73
2023/06/22 03:48:33;;;;;;;;;;;;;;;;;;5043726;28;20038;-73
2023/06/22 03:51:00;;;;;;;;;;;;;;;;;;5045881;28;19931;-74
2023/06/22 03:53:27;;;;;;;;;;;;;;;;;;5047434;28;20008;-73
2023/06/22 03:55:54;;;;;;;;;;;;;;;;;;5044430;28;19925;-73
2023/06/22 03:58:21;;;;;;;;;;;;;;;;;;5045817;28;20016;-73
2023/06/22 04:00:48;;;;;;;;;;;;;;;;;;5042025;28;19939;-73
2023/06/22 04:03:15;;;;;;;;;;;;;;;;;;5047831;28;19924;-74
2023/06/22 04:05:42;;;;;;;;;;;;;;;;;;5053050;28;19925;-74
2023/06/22 04:08:09;;;;;;;;;;;;;;;;;;5051864;28;19968;-73
2023/06/22 04:10:36;;;;;;;;;;;;;;;;;;5050785;28;20020;-74
2023/06/22 04:13:03;;;;;;;;;;;;;;;;;;5051319;28;19943;-74
2023/06/22 04:15:30;;;;;;;;;;;;;;;;;;5054926;28;19972;-73
2023/06/22 04:17:57;;;;;;;;;;;;;;;;;;5053683;28;20027;-74
2023/06/22 04:20:25;;;;;;;;;;;;;;;;;;5057083;28;19946;-74
2023/06/22 04:22:52;;;;;;;;;;;;;;;;;;5057667;28;19978;-73
2023/06/22 04:25:19;;;;;;;;;;;;;;;;;;5053705;28;20011;-73
2023/06/22 04:27:46;;;;;;;;;;;;;;;;;;5055051;28;19924;-73
2023/06/22 04:30:14;;;;;;;;;;;;;;;;;;5053993;28;19928;-73
2023/06/22 04:32:41;;;;;;;;;;;;;;;;;;5052362;28;19979;-73
2023/06/22 04:35:08;;;;;;;;;;;;;;;;;;5055003;28;19976;-73
2023/06/22 04:37:35;;;;;;;;;;;;;;;;;;5055231;28;19944;-72
2023/06/22 04:40:04;;;;;;;;;;;;;;;;;;5052419;28;19968;-72
2023/06/22 04:42:31;;;;;;;;;;;;;;;;;;5052780;28;19928;-73
2023/06/22 04:44:58;;;;;;;;;;;;;;;;;;5056060;28;20004;-72
2023/06/22 04:47:25;;;;;;;;;;;;;;;;;;5055602;28;20008;-72
2023/06/22 04:49:52;;;;;;;;;;;;;;;;;;5055417;28;19975;-72
2023/06/22 04:52:21;;;;;;;;;;;;;;;;;;5056441;28;19987;-73
2023/06/22 04:54:50;;;;;;;;;;;;;;;;;;5052735;28;20012;-72
2023/06/22 04:57:17;;;;;;;;;;;;;;;;;;5054438;28;19967;-73
2023/06/22 04:59:44;;;;;;;;;;;;;;;;;;5053152;28;19925;-72
2023/06/22 05:02:11;;;;;;;;;;;;;;;;;;5053077;28;20012;-72
2023/06/22 05:04:39;;;;;;;;;;;;;;;;;;5054839;28;20296;-71
2023/06/22 05:07:06;;;;;;;;;;;;;;;;;;5054907;28;19996;-68
2023/06/22 05:09:33;;;;;;;;;;;;;;;;;;5052588;28;20042;-72
2023/06/22 05:12:02;;;;;;;;;;;;;;;;;;5053784;28;19990;-71
2023/06/22 05:14:29;;;;;;;;;;;;;;;;;;5054183;28;20362;-71
2023/06/22 05:16:58;;;;;;;;;;;;;;;;;;5052859;28;20028;-72
2023/06/22 05:19:25;;;;;;;;;;;;;;;;;;5050947;28;19931;-71
2023/06/22 05:21:52;;;;;;;;;;;;;;;;;;5051433;28;20445;-72
2023/06/22 05:24:19;;;;;;;;;;;;;;;;;;5045326;28;20015;-71
2023/06/22 05:26:46;;;;;;;;;;;;;;;;;;5050233;28;19925;-72
2023/06/22 05:29:13;;;;;;;;;;;;;;;;;;5053856;28;19983;-72
2023/06/22 05:31:41;;;;;;;;;;;;;;;;;;5053450;28;19931;-72
2023/06/22 05:34:08;;;;;;;;;;;;;;;;;;5054624;28;20015;-73
2023/06/22 05:36:35;;;;;;;;;;;;;;;;;;5054725;28;19956;-73
2023/06/22 05:39:02;;;;;;;;;;;;;;;;;;5054481;28;19925;-73
2023/06/22 05:41:29;;;;;;;;;;;;;;;;;;5052814;28;19968;-73
2023/06/22 05:43:56;;;;;;;;;;;;;;;;;;5051663;28;19943;-73
2023/06/22 05:46:23;;;;;;;;;;;;;;;;;;5051336;28;19954;-73
2023/06/22 05:48:50;;;;;;;;;;;;;;;;;;5053474;28;20031;-73
2023/06/22 05:51:17;;;;;;;;;;;;;;;;;;5042785;28;20029;-73
2023/06/22 05:53:49;;;;;;;;;;;;;;;;;;5051946;28;19971;-73
2023/06/22 05:56:16;;;;;;;;;;;;;;;;;;5053347;28;20398;-73
2023/06/22 05:58:43;;;;;;;;;;;;;;;;;;5053711;28;19947;-73
2023/06/22 06:01:28;;;;;;;;;;;;;;;;;;;;;
2023/06/22 06:04:00;;;;;;;;;;;;;;;;;;5040455;22;19964;-73
2023/06/22 06:06:28;;;;;;;;;;;;;;;;;;5031774;28;20008;-73
2023/06/22 06:08:55;;;;;;;;;;;;;;;;;;5030538;28;19925;-74
2023/06/22 06:11:22;;;;;;;;;;;;;;;;;;5033070;28;19925;-73
2023/06/22 06:13:49;;;;;;;;;;;;;;;;;;5027203;28;20031;-73
2023/06/22 06:16:16;;;;;;;;;;;;;;;;;;5029940;28;19943;-71
2023/06/22 06:18:43;;;;;;;;;;;;;;;;;;5032356;28;20022;-73
2023/06/22 06:21:10;;;;;;;;;;;;;;;;;;5033675;28;20429;-73
2023/06/22 06:23:37;;;;;;;;;;;;;;;;;;5033408;28;19964;-73
2023/06/22 06:26:07;;;;;;;;;;;;;;;;;;5033216;28;19951;-74
2023/06/22 06:28:34;;;;;;;;;;;;;;;;;;5032468;28;19929;-73
2023/06/22 06:31:01;;;;;;;;;;;;;;;;;;5032366;28;19925;-73
2023/06/22 06:33:28;;;;;;;;;;;;;;;;;;5026043;28;19925;-73
2023/06/22 06:35:56;;;;;;;;;;;;;;;;;;5021032;28;19926;-71
2023/06/22 06:38:23;;;;;;;;;;;;;;;;;;5027868;28;19960;-73
2023/06/22 06:40:50;;;;;;;;;;;;;;;;;;5031014;28;20017;-72
2023/06/22 06:43:17;;;;;;;;;;;;;;;;;;5032442;28;20362;-73
2023/06/22 06:45:44;;;;;;;;;;;;;;;;;;5014608;28;19971;-73
2023/06/22 06:48:11;;;;;;;;;;;;;;;;;;5002020;28;19925;-74
2023/06/22 06:50:38;;;;;;;;;;;;;;;;;;5005858;28;19936;-72
2023/06/22 06:53:05;;;;;;;;;;;;;;;;;;5011211;28;19969;-72
2023/06/22 06:55:32;;;;;;;;;;;;;;;;;;5007862;28;20379;-72
2023/06/22 06:57:59;;;;;;;;;;;;;;;;;;5004342;28;19926;-72
2023/06/22 07:00:26;;;;;;;;;;;;;;;;;;4998562;28;20012;-72
2023/06/22 07:02:53;;;;;;;;;;;;;;;;;;4992939;28;19926;-72
2023/06/22 07:05:20;;;;;;;;;;;;;;;;;;5008596;28;19925;-73
2023/06/22 07:07:47;;;;;;;;;;;;;;;;;;4996252;28;20084;-71
2023/06/22 07:10:15;;;;;;;;;;;;;;;;;;4996963;28;19927;-70
2023/06/22 07:12:42;;;;;;;;;;;;;;;;;;5001589;28;20024;-72
2023/06/22 07:15:09;;;;;;;;;;;;;;;;;;4999351;28;19979;-71
2023/06/22 07:17:36;;;;;;;;;;;;;;;;;;5006129;28;19925;-72
2023/06/22 07:20:07;;;;;;;;;;;;;;;;;;5006558;28;20009;-71
2023/06/22 07:22:34;;;;;;;;;;;;;;;;;;5003757;28;19926;-71
2023/06/22 07:25:03;;;;;;;;;;;;;;;;;;4997334;28;20013;-73
2023/06/22 07:27:35;;;;;;;;;;;;;;;;;;5001250;28;20012;-72
2023/06/22 07:30:01;;;;;;;;;;;;;;;;;;5003175;28;20012;-73
2023/06/22 07:32:29;;;;;;;;;;;;;;;;;;4999326;28;20016;-71
2023/06/22 07:34:56;;;;;;;;;;;;;;;;;;4998828;28;19926;-71
2023/06/22 07:37:23;;;;;;;;;;;;;;;;;;4998144;28;19925;-73
2023/06/22 07:39:53;;;;;;;;;;;;;;;;;;5000989;28;19930;-73
2023/06/22 07:42:20;;;;;;;;;;;;;;;;;;4995967;28;19962;-73
2023/06/22 07:44:47;;;;;;;;;;;;;;;;;;5000115;28;19980;-72
2023/06/22 07:47:14;;;;;;;;;;;;;;;;;;5001612;28;20012;-73
2023/06/22 07:49:41;;;;;;;;;;;;;;;;;;4994279;28;19926;-73
2023/06/22 07:52:08;;;;;;;;;;;;;;;;;;4992979;28;19930;-74
2023/06/22 07:54:35;;;;;;;;;;;;;;;;;;5002114;28;19948;-72
2023/06/22 07:57:02;;;;;;;;;;;;;;;;;;4991490;28;19980;-71
2023/06/22 07:59:29;;;;;;;;;;;;;;;;;;5005536;28;19932;-72
2023/06/22 08:01:56;;;;;;;;;;;;;;;;;;4997510;28;19925;-72
2023/06/22 08:04:23;;;;;;;;;;;;;;;;;;5011816;28;19937;-73
2023/06/22 08:06:50;;;;;;;;;;;;;;;;;;4995471;28;19932;-72
2023/06/22 08:09:17;;;;;;;;;;;;;;;;;;5002001;28;20016;-73
2023/06/22 08:11:44;;;;;;;;;;;;;;;;;;4999598;28;19965;-73
2023/06/22 08:14:11;;;;;;;;;;;;;;;;;;5004393;28;20337;-74
2023/06/22 08:16:38;;;;;;;;;;;;;;;;;;4995146;28;19933;-73
2023/06/22 08:19:05;;;;;;;;;;;;;;;;;;5003902;28;20021;-73
2023/06/22 08:21:32;;;;;;;;;;;;;;;;;;4997419;28;19926;-74
2023/06/22 08:23:59;;;;;;;;;;;;;;;;;;5001134;28;19936;-74
2023/06/22 08:26:26;;;;;;;;;;;;;;;;;;5003550;28;20452;-70
2023/06/22 08:28:53;;;;;;;;;;;;;;;;;;5000317;28;20016;-74
2023/06/22 08:31:20;;;;;;;;;;;;;;;;;;5001319;28;19933;-74
2023/06/22 08:33:47;;;;;;;;;;;;;;;;;;5002847;28;20008;-74
2023/06/22 08:36:14;;;;;;;;;;;;;;;;;;5003672;28;19981;-74
2023/06/22 08:38:41;;;;;;;;;;;;;;;;;;5004521;28;19929;-74
2023/06/22 08:41:08;;;;;;;;;;;;;;;;;;5000315;28;20020;-73
2023/06/22 08:43:35;;;;;;;;;;;;;;;;;;4993895;28;19925;-73
2023/06/22 08:46:03;;;;;;;;;;;;;;;;;;5008138;28;20427;-73
2023/06/22 08:48:29;;;;;;;;;;;;;;;;;;4993676;28;19929;-74
2023/06/22 08:50:56;;;;;;;;;;;;;;;;;;4997049;28;20017;-74
2023/06/22 08:53:23;;;;;;;;;;;;;;;;;;4997926;28;19971;-74
2023/06/22 08:55:51;;;;;;;;;;;;;;;;;;5008787;28;20025;-74
2023/06/22 08:58:20;;;;;;;;;;;;;;;;;;5004433;28;20144;-74
2023/06/22 09:00:47;;;;;;;;;;;;;;;;;;4998215;28;19925;-75
2023/06/22 09:03:14;;;;;;;;;;;;;;;;;;4997528;28;20028;-74
2023/06/22 09:05:41;;;;;;;;;;;;;;;;;;5003141;28;19965;-74
2023/06/22 09:08:08;;;;;;;;;;;;;;;;;;4997973;28;19933;-74
2023/06/22 09:10:35;;;;;;;;;;;;;;;;;;5000902;28;19932;-75
2023/06/22 09:13:02;;;;;;;;;;;;;;;;;;5007248;28;20019;-74
2023/06/22 09:15:29;;;;;;;;;;;;;;;;;;5004467;28;19933;-74
2023/06/22 09:17:57;;;;;;;;;;;;;;;;;;5005231;28;20363;-75
2023/06/22 09:20:24;;;;;;;;;;;;;;;;;;5007808;28;19961;-75
2023/06/22 09:22:51;;;;;;;;;;;;;;;;;;5008394;28;19926;-74
2023/06/22 09:25:20;;;;;;;;;;;;;;;;;;5001694;28;20436;-75
2023/06/22 09:27:47;;;;;;;;;;;;;;;;;;5008715;28;20024;-74
2023/06/22 09:30:14;;;;;;;;;;;;;;;;;;5011261;28;19926;-74
2023/06/22 09:32:42;;;;;;;;;;;;;;;;;;5009172;28;19994;-75
2023/06/22 09:35:09;;;;;;;;;;;;;;;;;;5010773;28;19983;-75
2023/06/22 09:37:36;;;;;;;;;;;;;;;;;;5010088;28;19933;-75
2023/06/22 09:40:08;;;;;;;;;;;;;;;;;;5008055;28;19925;-75
2023/06/22 09:42:35;;;;;;;;;;;;;;;;;;5008752;28;19938;-75
2023/06/22 09:45:02;;;;;;;;;;;;;;;;;;4998113;28;19977;-76
2023/06/22 09:47:29;;;;;;;;;;;;;;;;;;5011942;28;19933;-76
2023/06/22 09:49:56;;;;;;;;;;;;;;;;;;5004677;28;19976;-77
2023/06/22 09:52:23;;;;;;;;;;;;;;;;;;5013629;28;19925;-76
2023/06/22 09:54:50;;;;;;;;;;;;;;;;;;4996667;28;19926;-75
2023/06/22 09:57:17;;;;;;;;;;;;;;;;;;4998365;28;19969;-76
2023/06/22 09:59:44;;;;;;;;;;;;;;;;;;5002510;28;19925;-74
2023/06/22 10:02:11;;;;;;;;;;;;;;;;;;5001538;28;20436;-74
2023/06/22 10:04:39;;;;;;;;;;;;;;;;;;5004789;28;19933;-73
2023/06/22 10:07:06;;;;;;;;;;;;;;;;;;5003467;28;19947;-74
2023/06/22 10:09:33;;;;;;;;;;;;;;;;;;5003503;28;19972;-74
2023/06/22 10:12:00;;;;;;;;;;;;;;;;;;5004599;28;19977;-75
2023/06/22 10:14:29;;;;;;;;;;;;;;;;;;5005739;28;20456;-74
2023/06/22 10:16:56;;;;;;;;;;;;;;;;;;5005042;28;19926;-75
2023/06/22 10:19:23;;;;;;;;;;;;;;;;;;5008030;28;19931;-72
2023/06/22 10:21:50;;;;;;;;;;;;;;;;;;5009287;28;20071;-74
2023/06/22 10:24:17;;;;;;;;;;;;;;;;;;5008555;28;19930;-73
2023/06/22 10:26:44;;;;;;;;;;;;;;;;;;5012873;28;19925;-73
2023/06/22 10:29:11;;;;;;;;;;;;;;;;;;5007442;28;20393;-76
2023/06/22 10:31:38;;;;;;;;;;;;;;;;;;5010139;28;19933;-73
2023/06/22 10:34:05;;;;;;;;;;;;;;;;;;5010031;28;19926;-72
2023/06/22 10:36:33;;;;;;;;;;;;;;;;;;5010603;28;20356;-74
2023/06/22 10:39:01;;;;;;;;;;;;;;;;;;5006216;28;19933;-74
2023/06/22 10:41:30;;;;;;;;;;;;;;;;;;5006469;28;19925;-72
2023/06/22 10:43:57;;;;;;;;;;;;;;;;;;5011053;28;19936;-73
2023/06/22 10:46:24;;;;;;;;;;;;;;;;;;5007299;28;20087;-74
2023/06/22 10:48:50;;;;;;;;;;;;;;;;;;5012135;28;20015;-71
2023/06/22 10:51:18;;;;;;;;;;;;;;;;;;5000878;28;19965;-70
2023/06/22 10:53:45;;;;;;;;;;;;;;;;;;5005920;28;19926;-69
2023/06/22 10:56:12;;;;;;;;;;;;;;;;;;5002567;28;19973;-71
2023/06/22 10:58:39;;;;;;;;;;;;;;;;;;5008689;28;19948;-71
2023/06/22 11:01:07;;;;;;;;;;;;;;;;;;5007301;28;19933;-71
2023/06/22 11:03:37;;;;;;;;;;;;;;;;;;5004231;28;19925;-71
2023/06/22 11:06:04;;;;;;;;;;;;;;;;;;5004481;28;20017;-71
2023/06/22 11:08:31;;;;;;;;;;;;;;;;;;5000539;28;19972;-71
2023/06/22 11:10:58;;;;;;;;;;;;;;;;;;5003864;28;19925;-70
2023/06/22 11:13:25;;;;;;;;;;;;;;;;;;5008655;28;20389;-69
2023/06/22 11:15:52;;;;;;;;;;;;;;;;;;5006289;28;19926;-71
2023/06/22 11:18:19;;;;;;;;;;;;;;;;;;5013023;28;19980;-71
2023/06/22 11:20:47;;;;;;;;;;;;;;;;;;5009147;28;20042;-72
2023/06/22 11:23:14;;;;;;;;;;;;;;;;;;5002482;28;20473;-71
2023/06/22 11:25:43;;;;;;;;;;;;;;;;;;5005832;28;20334;-69
2023/06/22 11:28:10;;;;;;;;;;;;;;;;;;4993346;28;19930;-68
2023/06/22 11:30:37;;;;;;;;;;;;;;;;;;4996992;28;20020;-67
2023/06/22 11:33:04;;;;;;;;;;;;;;;;;;4995376;28;19925;-68
2023/06/22 11:35:31;;;;;;;;;;;;;;;;;;4998579;28;19995;-68
2023/06/22 11:37:58;;;;;;;;;;;;;;;;;;5008802;28;19987;-69
2023/06/22 11:40:25;;;;;;;;;;;;;;;;;;5003328;28;20016;-68
2023/06/22 11:42:53;;;;;;;;;;;;;;;;;;4999695;28;19933;-69
2023/06/22 11:45:20;;;;;;;;;;;;;;;;;;5007730;28;19945;-69
2023/06/22 11:47:49;;;;;;;;;;;;;;;;;;4997634;28;19926;-71
2023/06/22 11:50:16;;;;;;;;;;;;;;;;;;5001727;28;19930;-69
2023/06/22 11:52:44;;;;;;;;;;;;;;;;;;4999455;28;19929;-70
2023/06/22 11:55:11;;;;;;;;;;;;;;;;;;5001413;28;19930;-70
2023/06/22 11:57:38;;;;;;;;;;;;;;;;;;5012013;28;20280;-69
2023/06/22 12:00:14;;;;;;;;;;;;;;;;;;4996493;28;19926;-70
2023/06/22 12:02:41;;;;;;;;;;;;;;;;;;4999571;28;19984;-70
2023/06/22 12:05:08;;;;;;;;;;;;;;;;;;5005271;28;19973;-69
2023/06/22 12:07:35;;;;;;;;;;;;;;;;;;5001057;28;19926;-70
2023/06/22 12:10:02;;;;;;;;;;;;;;;;;;5008044;28;19961;-72
2023/06/22 12:12:29;;;;;;;;;;;;;;;;;;5009756;28;20041;-69
2023/06/22 12:14:56;;;;;;;;;;;;;;;;;;4995716;28;19968;-70
2023/06/22 12:17:23;;;;;;;;;;;;;;;;;;4995849;28;20471;-69
2023/06/22 12:19:50;;;;;;;;;;;;;;;;;;5003524;28;20450;-70
2023/06/22 12:22:17;;;;;;;;;;;;;;;;;;4999214;28;19968;-70
2023/06/22 12:24:44;;;;;;;;;;;;;;;;;;5003017;28;19926;-69
2023/06/22 12:27:11;;;;;;;;;;;;;;;;;;4999060;28;19930;-70
2023/06/22 12:29:38;;;;;;;;;;;;;;;;;;4996712;28;20005;-69
2023/06/22 12:32:05;;;;;;;;;;;;;;;;;;4997690;28;19964;-70
2023/06/22 12:34:32;;;;;;;;;;;;;;;;;;4997856;28;19931;-69
2023/06/22 12:36:59;;;;;;;;;;;;;;;;;;5008092;28;19925;-70
2023/06/22 12:39:26;;;;;;;;;;;;;;;;;;5005918;28;19932;-69
2023/06/22 12:41:53;;;;;;;;;;;;;;;;;;5011409;28;19932;-69
2023/06/22 12:44:20;;;;;;;;;;;;;;;;;;5007255;28;20531;-69
2023/06/22 12:46:47;;;;;;;;;;;;;;;;;;5006488;28;20011;-68
2023/06/22 12:49:14;;;;;;;;;;;;;;;;;;4996245;28;20329;-68
2023/06/22 12:51:41;;;;;;;;;;;;;;;;;;5000143;28;20399;-69
2023/06/22 12:54:08;;;;;;;;;;;;;;;;;;5013143;28;19972;-69
2023/06/22 12:56:35;;;;;;;;;;;;;;;;;;5012984;28;19980;-70
2023/06/22 12:59:02;;;;;;;;;;;;;;;;;;5011257;28;20316;-70
2023/06/22 13:01:30;;;;;;;;;;;;;;;;;;5013800;28;20389;-70
2023/06/22 13:03:57;;;;;;;;;;;;;;;;;;5008671;28;20451;-69
2023/06/22 13:06:24;;;;;;;;;;;;;;;;;;4997539;28;19993;-69
2023/06/22 13:08:51;;;;;;;;;;;;;;;;;;5004542;28;20160;-69
2023/06/22 13:11:18;;;;;;;;;;;;;;;;;;5004415;28;20436;-70
2023/06/22 13:13:45;;;;;;;;;;;;;;;;;;5010715;28;20464;-69
2023/06/22 13:16:12;;;;;;;;;;;;;;;;;;5010146;28;20380;-70
2023/06/22 13:18:39;;;;;;;;;;;;;;;;;;5012850;28;20032;-71
2023/06/22 13:21:06;;;;;;;;;;;;;;;;;;5005158;28;19980;-69
2023/06/22 13:23:33;;;;;;;;;;;;;;;;;;5000196;28;19926;-69
2023/06/22 13:26:01;;;;;;;;;;;;;;;;;;5001203;28;19961;-69
2023/06/22 13:28:29;;;;;;;;;;;;;;;;;;5002312;28;19925;-70
2023/06/22 13:30:56;;;;;;;;;;;;;;;;;;5010330;28;19926;-69
2023/06/22 13:33:23;;;;;;;;;;;;;;;;;;5007219;28;19972;-69
2023/06/22 13:35:50;;;;;;;;;;;;;;;;;;5013513;28;20395;-68
2023/06/22 13:38:18;;;;;;;;;;;;;;;;;;5001100;28;20385;-70
2023/06/22 13:40:45;;;;;;;;;;;;;;;;;;5001453;28;19975;-69
2023/06/22 13:43:12;;;;;;;;;;;;;;;;;;5002062;28;20012;-70
2023/06/22 13:45:39;;;;;;;;;;;;;;;;;;5005316;28;20020;-65
2023/06/22 13:48:07;;;;;;;;;;;;;;;;;;5007733;28;19964;-69
2023/06/22 13:50:34;;;;;;;;;;;;;;;;;;4997928;28;20408;-69
2023/06/22 13:53:02;;;;;;;;;;;;;;;;;;5005365;28;20431;-67
2023/06/22 13:55:30;;;;;;;;;;;;;;;;;;5006329;28;19926;-67
2023/06/22 13:57:57;;;;;;;;;;;;;;;;;;5009037;28;19933;-67
2023/06/22 14:00:27;;;;;;;;;;;;;;;;;;5003291;28;19933;-67
2023/06/22 14:02:56;;;;;;;;;;;;;;;;;;5012038;28;19979;-67
2023/06/22 14:05:23;;;;;;;;;;;;;;;;;;5005073;28;19965;-66
2023/06/22 14:07:50;;;;;;;;;;;;;;;;;;5000726;28;19988;-65
2023/06/22 14:10:17;;;;;;;;;;;;;;;;;;5008282;28;20013;-70
2023/06/22 14:12:44;;;;;;;;;;;;;;;;;;5006835;28;19940;-71
2023/06/22 14:15:11;;;;;;;;;;;;;;;;;;5008996;28;20393;-68
2023/06/22 14:17:38;;;;;;;;;;;;;;;;;;5009761;28;19925;-72
2023/06/22 14:20:07;;;;;;;;;;;;;;;;;;5005232;28;19976;-69
2023/06/22 14:22:35;;;;;;;;;;;;;;;;;;5010086;28;19933;-65
2023/06/22 14:25:02;;;;;;;;;;;;;;;;;;5012857;28;19965;-65
2023/06/22 14:27:29;;;;;;;;;;;;;;;;;;5009147;28;19985;-67
2023/06/22 14:29:56;;;;;;;;;;;;;;;;;;5005299;28;19947;-64
2023/06/22 14:32:23;;;;;;;;;;;;;;;;;;5005436;28;20011;-62
2023/06/22 14:34:50;;;;;;;;;;;;;;;;;;5004627;28;19936;-65
2023/06/22 14:37:17;;;;;;;;;;;;;;;;;;5008283;28;19926;-65
2023/06/22 14:39:44;;;;;;;;;;;;;;;;;;5008252;28;20012;-65
2023/06/22 14:42:11;;;;;;;;;;;;;;;;;;5008315;28;20028;-66
2023/06/22 14:44:38;;;;;;;;;;;;;;;;;;5000098;28;19968;-66
2023/06/22 14:47:05;;;;;;;;;;;;;;;;;;5004825;28;20444;-66
2023/06/22 14:49:32;;;;;;;;;;;;;;;;;;5011885;28;20009;-65
2023/06/22 14:51:59;;;;;;;;;;;;;;;;;;4999585;28;19931;-66
2023/06/22 14:54:26;;;;;;;;;;;;;;;;;;5007830;28;20013;-66
2023/06/22 14:56:53;;;;;;;;;;;;;;;;;;5008289;28;19926;-66
2023/06/22 14:59:20;;;;;;;;;;;;;;;;;;5005430;28;20321;-66
2023/06/22 15:01:47;;;;;;;;;;;;;;;;;;5011759;28;19957;-66
2023/06/22 15:04:16;;;;;;;;;;;;;;;;;;5009848;28;20388;-66
2023/06/22 15:06:44;;;;;;;;;;;;;;;;;;5004853;28;20024;-66
2023/06/22 15:09:11;;;;;;;;;;;;;;;;;;5011664;28;20020;-66
2023/06/22 15:11:38;;;;;;;;;;;;;;;;;;5008674;28;20005;-66
2023/06/22 15:14:05;;;;;;;;;;;;;;;;;;5008244;28;19932;-66
2023/06/22 15:16:32;;;;;;;;;;;;;;;;;;5003042;28;20464;-66
2023/06/22 15:18:59;;;;;;;;;;;;;;;;;;5007834;28;19965;-65
2023/06/22 15:21:26;;;;;;;;;;;;;;;;;;5011523;28;19926;-66
2023/06/22 15:23:53;;;;;;;;;;;;;;;;;;5010845;28;19963;-65
2023/06/22 15:26:20;;;;;;;;;;;;;;;;;;5012099;28;19961;-65
2023/06/22 15:28:47;;;;;;;;;;;;;;;;;;5005261;28;19925;-66
2023/06/22 15:31:14;;;;;;;;;;;;;;;;;;5010012;28;20305;-65
2023/06/22 15:33:46;;;;;;;;;;;;;;;;;;5009715;28;19968;-67
2023/06/22 15:36:13;;;;;;;;;;;;;;;;;;5002643;28;19940;-67
2023/06/22 15:38:40;;;;;;;;;;;;;;;;;;5000876;28;19933;-66
2023/06/22 15:41:08;;;;;;;;;;;;;;;;;;5002782;28;20379;-66
2023/06/22 15:43:35;;;;;;;;;;;;;;;;;;5009865;28;19926;-67
2023/06/22 15:46:02;;;;;;;;;;;;;;;;;;5005312;28;20428;-67
2023/06/22 15:48:29;;;;;;;;;;;;;;;;;;5006015;28;19932;-67
2023/06/22 15:50:55;;;;;;;;;;;;;;;;;;5011893;28;19933;-67
2023/06/22 15:53:22;;;;;;;;;;;;;;;;;;5009330;28;19936;-67
2023/06/22 15:55:49;;;;;;;;;;;;;;;;;;5003357;28;19925;-66
2023/06/22 15:58:16;;;;;;;;;;;;;;;;;;4997833;28;20040;-66
2023/06/22 16:00:45;;;;;;;;;;;;;;;;;;4997069;28;19937;-67
2023/06/22 16:03:12;;;;;;;;;;;;;;;;;;5002483;28;20012;-67
2023/06/22 16:05:39;;;;;;;;;;;;;;;;;;5002677;28;19925;-67
2023/06/22 16:08:09;;;;;;;;;;;;;;;;;;5002879;28;20004;-68
2023/06/22 16:10:36;;;;;;;;;;;;;;;;;;5007539;28;19973;-67
2023/06/22 16:13:03;;;;;;;;;;;;;;;;;;5004122;28;20028;-67
2023/06/22 16:15:30;;;;;;;;;;;;;;;;;;5004080;28;19932;-67
2023/06/22 16:17:57;;;;;;;;;;;;;;;;;;5001201;28;19941;-67
2023/06/22 16:20:24;;;;;;;;;;;;;;;;;;5005108;28;20043;-67
2023/06/22 16:22:51;;;;;;;;;;;;;;;;;;5005058;28;19926;-71
2023/06/22 16:25:18;;;;;;;;;;;;;;;;;;5009157;28;19936;-66
2023/06/22 16:27:45;;;;;;;;;;;;;;;;;;5000166;28;20016;-66
2023/06/22 16:30:12;;;;;;;;;;;;;;;;;;4998890;28;20021;-66
2023/06/22 16:32:39;;;;;;;;;;;;;;;;;;5007893;28;19932;-66
2023/06/22 16:35:06;;;;;;;;;;;;;;;;;;5010318;28;19932;-66
2023/06/22 16:37:33;;;;;;;;;;;;;;;;;;4996453;28;19999;-67
2023/06/22 16:40:00;;;;;;;;;;;;;;;;;;4998778;28;19932;-67
2023/06/22 16:42:27;;;;;;;;;;;;;;;;;;4993532;28;19932;-67
2023/06/22 16:44:54;;;;;;;;;;;;;;;;;;4992923;28;19926;-67